createdAt,value
2022-09-04T00:00:29.738Z,20.02
2022-09-04T00:03:49.865Z,17.52
2022-09-04T00:07:06.800Z,16.60
2022-09-04T00:10:38.100Z,18.73
2022-09-04T00:14:01.637Z,17.23
2022-09-04T00:17:11.774Z,16.73
2022-09-04T00:20:27.154Z,19.65
2022-09-04T00:23:50.698Z,16.02
2022-09-04T00:27:07.491Z,16.38
2022-09-04T00:30:16.186Z,16.05
2022-09-04T00:33:26.591Z,17.77
2022-09-04T00:36:28.721Z,18.45
2022-09-04T00:39:45.352Z,17.52
2022-09-04T00:43:24.515Z,20.23
2022-09-04T00:46:45.307Z,18.55
2022-09-04T00:50:11.947Z,18.73
2022-09-04T00:53:37.437Z,21.30
2022-09-04T00:57:19.957Z,18.85
2022-09-04T01:00:22.827Z,17.75
2022-09-04T01:03:56.163Z,19.27
2022-09-04T01:07:09.988Z,19.08
2022-09-04T01:10:34.476Z,19.02
2022-09-04T01:13:51.872Z,17.90
2022-09-04T01:17:23.214Z,18.95
2022-09-04T01:20:55.659Z,22.45
2022-09-04T01:24:19.935Z,18.38
2022-09-04T01:27:42.215Z,20.45
2022-09-04T01:31:09.331Z,21.17
2022-09-04T01:34:31.000Z,19.55
2022-09-04T01:38:17.938Z,19.77
2022-09-04T01:41:37.690Z,18.13
2022-09-04T01:44:40.920Z,19.00
2022-09-04T01:47:49.507Z,18.60
2022-09-04T01:50:53.964Z,22.38
2022-09-04T01:54:27.492Z,17.90
2022-09-04T01:58:07.084Z,22.10
2022-09-04T02:01:52.679Z,18.13
2022-09-04T02:05:17.731Z,19.02
2022-09-04T02:09:00.246Z,19.48
2022-09-04T02:12:37.975Z,19.13
2022-09-04T02:16:04.996Z,20.33
2022-09-04T02:19:39.194Z,18.92
2022-09-04T02:22:45.122Z,18.30
2022-09-04T02:26:34.390Z,17.73
2022-09-04T02:30:10.606Z,19.48
2022-09-04T02:33:20.580Z,21.60
2022-09-04T02:36:50.206Z,20.35
2022-09-04T02:40:13.622Z,19.02
2022-09-04T02:43:48.513Z,19.67
2022-09-04T02:47:12.534Z,18.40
2022-09-04T02:50:49.891Z,17.23
2022-09-04T02:54:30.143Z,19.75
2022-09-04T02:57:56.617Z,19.55
2022-09-04T03:01:22.319Z,17.40
2022-09-04T03:04:50.081Z,19.67
2022-09-04T03:08:08.355Z,19.80
2022-09-04T03:11:29.707Z,19.77
2022-09-04T03:14:58.367Z,20.42
2022-09-04T03:18:24.500Z,20.50
2022-09-04T03:22:20.528Z,18.10
2022-09-04T03:25:57.812Z,19.88
2022-09-04T03:29:17.090Z,20.88
2022-09-04T03:32:26.563Z,23.15
2022-09-04T03:36:01.130Z,18.75
2022-09-04T03:39:27.470Z,19.83
2022-09-04T03:43:03.339Z,17.65
2022-09-04T03:46:39.078Z,18.30
2022-09-04T03:49:56.149Z,22.77
2022-09-04T03:53:19.752Z,18.53
2022-09-04T03:56:44.202Z,17.33
2022-09-04T04:00:13.411Z,22.02
2022-09-04T04:03:37.089Z,20.02
2022-09-04T04:07:01.613Z,16.85
2022-09-04T04:10:45.334Z,18.85
2022-09-04T04:14:08.986Z,22.40
2022-09-04T04:17:41.770Z,17.67
2022-09-04T04:20:45.573Z,18.73
2022-09-04T04:24:39.296Z,18.17
2022-09-04T04:28:25.583Z,17.63
2022-09-04T04:31:38.236Z,17.38
2022-09-04T04:34:43.987Z,17.05
2022-09-04T04:38:13.022Z,16.08
2022-09-04T04:41:53.465Z,14.43
2022-09-04T04:45:40.811Z,15.25
2022-09-04T04:49:13.885Z,19.40
2022-09-04T04:52:18.633Z,15.88
2022-09-04T04:56:15.324Z,16.48
2022-09-04T04:59:44.160Z,14.52
2022-09-04T05:03:06.850Z,14.13
2022-09-04T05:06:21.931Z,13.25
2022-09-04T05:09:57.974Z,12.05
2022-09-04T05:14:02.566Z,15.38
2022-09-04T05:17:14.461Z,11.88
2022-09-04T05:21:02.568Z,13.05
2022-09-04T05:24:20.882Z,10.60
2022-09-04T05:27:22.923Z,12.82
2022-09-04T05:30:43.422Z,10.82
2022-09-04T05:34:27.785Z,10.57
2022-09-04T05:38:32.031Z,11.13
2022-09-04T05:42:06.953Z,10.82
2022-09-04T05:45:49.363Z,11.32
2022-09-04T05:49:09.366Z,11.40
2022-09-04T05:52:43.348Z,11.50
2022-09-04T05:56:13.276Z,10.57
2022-09-04T05:59:35.618Z,11.65
2022-09-04T06:03:25.105Z,10.30
2022-09-04T06:07:06.885Z,10.77
2022-09-04T06:10:39.918Z,8.98
2022-09-04T06:14:10.219Z,10.75
2022-09-04T06:17:18.428Z,61.65
2022-09-04T06:21:04.504Z,30.48
2022-09-04T06:24:39.756Z,18.92
2022-09-04T06:28:26.779Z,44.28
2022-09-04T06:31:43.723Z,25.90
2022-09-04T06:35:54.879Z,44.30
2022-09-04T06:39:16.445Z,49.47
2022-09-04T06:42:41.386Z,30.63
2022-09-04T06:46:02.155Z,18.25
2022-09-04T06:49:43.842Z,17.27
2022-09-04T06:52:59.138Z,32.05
2022-09-04T06:56:21.352Z,23.00
2022-09-04T06:59:35.807Z,63.35
2022-09-04T07:02:59.607Z,50.85
2022-09-04T07:06:22.306Z,51.50
2022-09-04T07:09:49.069Z,31.90
2022-09-04T07:13:19.361Z,48.92
2022-09-04T07:16:56.759Z,27.30
2022-09-04T07:20:15.572Z,21.50
2022-09-04T07:23:26.884Z,15.23
2022-09-04T07:27:07.875Z,16.92
2022-09-04T07:30:17.341Z,10.13
2022-09-04T07:34:11.182Z,10.25
2022-09-04T07:37:48.270Z,9.02
2022-09-04T07:40:58.910Z,7.40
2022-09-04T07:44:47.547Z,6.53
2022-09-04T07:51:16.142Z,5.85
2022-09-04T07:54:56.538Z,6.72
2022-09-04T07:58:37.400Z,6.28
2022-09-04T08:02:03.958Z,7.15
2022-09-04T08:05:48.324Z,7.40
2022-09-04T08:08:59.068Z,7.68
2022-09-04T08:12:21.987Z,8.18
2022-09-04T08:15:43.244Z,7.30
2022-09-04T08:19:15.800Z,6.05
2022-09-04T08:22:36.462Z,6.47
2022-09-04T08:26:14.317Z,9.30
2022-09-04T08:29:22.584Z,8.97
2022-09-04T08:32:49.582Z,5.30
2022-09-04T08:36:01.996Z,6.25
2022-09-04T08:39:09.867Z,7.65
2022-09-04T08:42:50.035Z,6.93
2022-09-04T08:46:29.053Z,7.57
2022-09-04T08:50:06.034Z,7.18
2022-09-04T08:53:26.644Z,6.28
2022-09-04T08:57:02.915Z,9.07
2022-09-04T09:00:20.792Z,7.43
2022-09-04T09:04:22.856Z,28.50
2022-09-04T09:07:58.537Z,27.05
2022-09-04T09:11:06.316Z,20.70
2022-09-04T09:15:01.027Z,34.08
2022-09-04T09:18:40.569Z,32.22
2022-09-04T09:22:20.663Z,32.63
2022-09-04T09:25:25.423Z,20.58
2022-09-04T09:29:23.489Z,37.47
2022-09-04T09:33:05.803Z,30.90
2022-09-04T09:36:14.862Z,14.63
2022-09-04T09:39:44.669Z,20.30
2022-09-04T09:43:24.496Z,19.17
2022-09-04T09:47:23.607Z,10.27
2022-09-04T09:50:40.709Z,10.68
2022-09-04T09:54:23.441Z,9.85
2022-09-04T09:57:53.484Z,9.25
2022-09-04T10:01:25.510Z,12.50
2022-09-04T10:05:14.965Z,9.52
2022-09-04T10:08:36.011Z,13.13
2022-09-04T10:12:02.867Z,7.65
2022-09-04T10:15:46.560Z,8.93
2022-09-04T10:19:39.456Z,9.10
2022-09-04T10:23:04.105Z,8.23
2022-09-04T10:26:39.288Z,8.75
2022-09-04T10:29:48.830Z,8.10
2022-09-04T10:33:18.815Z,8.70
2022-09-04T10:36:20.949Z,9.40
2022-09-04T10:40:01.427Z,9.75
2022-09-04T10:43:22.401Z,7.80
2022-09-04T10:46:27.847Z,9.07
2022-09-04T10:50:07.970Z,6.60
2022-09-04T10:53:41.767Z,8.93
2022-09-04T10:57:37.373Z,8.25
2022-09-04T11:01:21.499Z,7.43
2022-09-04T11:05:07.078Z,7.10
2022-09-04T11:08:20.297Z,7.03
2022-09-04T11:11:40.651Z,8.63
2022-09-04T11:15:32.523Z,6.88
2022-09-04T11:18:46.482Z,7.40
2022-09-04T11:22:43.151Z,11.88
2022-09-04T11:26:19.119Z,8.45
2022-09-04T11:29:58.647Z,7.85
2022-09-04T11:33:18.802Z,9.15
2022-09-04T11:36:29.724Z,8.35
2022-09-04T11:39:52.864Z,8.45
2022-09-04T11:43:31.541Z,8.25
2022-09-04T11:47:15.200Z,7.82
2022-09-04T11:50:56.494Z,13.35
2022-09-04T11:54:24.131Z,19.30
2022-09-04T11:57:44.100Z,21.95
2022-09-04T12:01:04.228Z,9.32
2022-09-04T12:04:37.656Z,13.07
2022-09-04T12:08:26.178Z,9.40
2022-09-04T12:11:46.895Z,10.70
2022-09-04T12:15:07.293Z,9.40
2022-09-04T12:19:01.337Z,9.90
2022-09-04T12:22:51.812Z,9.50
2022-09-04T12:26:24.946Z,8.25
2022-09-04T12:30:00.010Z,9.23
2022-09-04T12:33:19.900Z,9.15
2022-09-04T12:36:52.080Z,7.72
2022-09-04T12:40:30.410Z,10.15
2022-09-04T12:44:11.819Z,9.38
2022-09-04T12:47:25.859Z,6.68
2022-09-04T12:51:14.853Z,9.00
2022-09-04T12:55:04.138Z,6.68
2022-09-04T12:58:18.248Z,7.50
2022-09-04T13:01:49.726Z,8.07
2022-09-04T13:05:49.791Z,9.48
2022-09-04T13:09:04.969Z,8.25
2022-09-04T13:12:44.389Z,7.85
2022-09-04T13:16:08.946Z,8.32
2022-09-04T13:20:09.179Z,11.00
2022-09-04T13:24:01.629Z,14.73
2022-09-04T13:27:26.404Z,8.23
2022-09-04T13:30:29.020Z,15.23
2022-09-04T13:33:58.254Z,24.77
2022-09-04T13:37:27.611Z,25.58
2022-09-04T13:40:44.954Z,25.10
2022-09-04T13:44:16.309Z,29.25
2022-09-04T13:47:32.799Z,21.55
2022-09-04T13:50:40.339Z,10.67
2022-09-04T13:54:16.915Z,25.10
2022-09-04T13:57:21.750Z,11.65
2022-09-04T14:00:28.794Z,8.25
2022-09-04T14:06:35.842Z,8.82
2022-09-04T14:09:44.349Z,11.43
2022-09-04T14:13:24.315Z,9.32
2022-09-04T14:16:26.458Z,8.30
2022-09-04T14:19:51.408Z,7.97
2022-09-04T14:23:12.513Z,9.27
2022-09-04T14:26:39.535Z,8.07
2022-09-04T14:30:15.140Z,5.68
2022-09-04T14:33:29.224Z,5.20
2022-09-04T14:37:24.086Z,6.97
2022-09-04T14:40:45.937Z,7.68
2022-09-04T14:44:03.765Z,5.43
2022-09-04T14:47:26.086Z,6.20
2022-09-04T14:50:29.463Z,5.72
2022-09-04T14:53:33.748Z,9.20
2022-09-04T14:56:58.341Z,9.02
2022-09-04T15:00:19.139Z,5.70
2022-09-04T15:03:25.696Z,7.75
2022-09-04T15:07:09.834Z,6.97
2022-09-04T15:10:32.991Z,6.10
2022-09-04T15:13:54.816Z,4.95
2022-09-04T15:17:03.535Z,7.07
2022-09-04T15:20:10.100Z,7.53
2022-09-04T15:24:02.129Z,6.93
2022-09-04T15:27:28.520Z,5.97
2022-09-04T15:30:38.733Z,6.20
2022-09-04T15:33:43.059Z,7.40
2022-09-04T15:36:45.214Z,4.95
2022-09-04T15:40:10.931Z,8.10
2022-09-04T15:43:16.011Z,4.45
2022-09-04T15:46:33.237Z,6.65
2022-09-04T15:49:50.534Z,6.50
2022-09-04T15:53:25.109Z,5.93
2022-09-04T15:56:34.973Z,6.20
2022-09-04T15:59:49.815Z,6.13
2022-09-04T16:03:15.549Z,5.57
2022-09-04T16:06:30.141Z,5.43
2022-09-04T16:10:25.882Z,6.72
2022-09-04T16:13:28.937Z,6.35
2022-09-04T16:16:44.529Z,6.22
2022-09-04T16:20:24.172Z,7.20
2022-09-04T16:23:35.327Z,6.20
2022-09-04T16:26:37.391Z,8.80
2022-09-04T16:30:09.974Z,6.35
2022-09-04T16:33:32.251Z,6.78
2022-09-04T16:36:48.338Z,5.60
2022-09-04T16:40:21.795Z,7.70
2022-09-04T16:43:28.876Z,6.90
2022-09-04T16:46:32.466Z,6.97
2022-09-04T16:49:55.196Z,6.85
2022-09-04T16:53:17.487Z,6.72
2022-09-04T16:56:36.443Z,6.88
2022-09-04T16:59:50.983Z,6.78
2022-09-04T17:03:02.713Z,5.85
2022-09-04T17:06:18.291Z,5.57
2022-09-04T17:09:42.245Z,7.18
2022-09-04T17:13:15.188Z,5.72
2022-09-04T17:16:52.713Z,7.22
2022-09-04T17:20:12.326Z,5.32
2022-09-04T17:29:01.004Z,7.63
2022-09-04T17:29:08.636Z,9.30
2022-09-04T17:30:51.509Z,7.70
2022-09-04T17:40:36.759Z,7.78
2022-09-04T17:40:44.351Z,6.50
2022-09-04T17:41:31.321Z,5.10
2022-09-04T17:45:04.036Z,6.97
2022-09-04T17:48:12.009Z,7.97
2022-09-04T17:51:27.845Z,6.93
2022-09-04T17:54:32.355Z,7.38
2022-09-04T17:57:51.872Z,6.18
2022-09-04T18:01:15.222Z,5.70
2022-09-04T18:04:32.646Z,4.93
2022-09-04T18:08:09.226Z,5.25
2022-09-04T18:11:36.114Z,6.82
2022-09-04T18:15:25.221Z,6.75
2022-09-04T18:18:36.844Z,5.18
2022-09-04T18:22:07.793Z,6.50
2022-09-04T18:25:26.937Z,6.20
2022-09-04T18:28:52.185Z,5.47
2022-09-04T18:37:11.681Z,5.10
2022-09-04T18:37:25.848Z,6.72
2022-09-04T18:39:37.744Z,6.18
2022-09-04T18:50:25.015Z,5.90
2022-09-04T18:50:42.794Z,7.40
2022-09-04T18:50:45.240Z,6.88
2022-09-04T18:53:29.615Z,4.85
2022-09-04T18:56:54.231Z,5.93
2022-09-04T19:00:10.122Z,5.10
2022-09-04T19:04:18.584Z,5.22
2022-09-04T19:07:42.661Z,5.20
2022-09-04T19:10:55.228Z,6.25
2022-09-04T19:14:21.631Z,4.20
2022-09-04T19:17:29.328Z,10.88
2022-09-04T19:20:38.531Z,5.43
2022-09-04T19:24:24.599Z,7.57
2022-09-04T19:27:38.703Z,6.68
2022-09-04T19:30:53.410Z,11.73
2022-09-04T19:34:23.542Z,7.00
2022-09-04T19:42:06.060Z,7.43
2022-09-04T19:45:56.906Z,6.90
2022-09-04T19:46:18.773Z,8.57
2022-09-04T19:52:41.625Z,6.75
2022-09-04T19:53:33.790Z,7.20
2022-09-04T19:56:28.880Z,7.95
2022-09-04T19:59:44.804Z,5.88
2022-09-04T20:03:37.321Z,5.82
2022-09-04T20:06:51.174Z,4.13
2022-09-04T20:09:56.136Z,4.88
2022-09-04T20:13:32.479Z,7.72
2022-09-04T20:16:52.944Z,5.82
2022-09-04T20:20:03.208Z,7.93
2022-09-04T20:23:33.833Z,6.50
2022-09-04T20:30:11.970Z,7.93
2022-09-04T20:33:20.366Z,7.10
2022-09-04T20:36:32.691Z,6.53
2022-09-04T20:39:41.878Z,6.03
2022-09-04T20:43:03.485Z,8.85
2022-09-04T20:52:42.059Z,5.22
2022-09-04T20:53:06.686Z,8.52
2022-09-04T20:54:29.339Z,6.47
2022-09-04T21:03:05.241Z,5.88
2022-09-04T21:03:18.287Z,7.97
2022-09-04T21:05:23.635Z,7.15
2022-09-04T21:09:22.690Z,7.43
2022-09-04T21:12:35.240Z,7.10
2022-09-04T21:15:46.279Z,5.13
2022-09-04T21:19:27.488Z,6.63
2022-09-04T21:22:52.231Z,8.52
2022-09-04T21:26:18.326Z,6.40
2022-09-04T21:29:41.434Z,8.80
2022-09-04T21:33:27.287Z,8.27
2022-09-04T21:36:41.421Z,7.22
2022-09-04T21:40:52.757Z,9.07
2022-09-04T21:44:28.415Z,6.40
2022-09-04T21:48:05.132Z,7.35
2022-09-04T21:52:13.771Z,7.33
2022-09-04T22:02:26.037Z,10.13
2022-09-04T22:02:38.283Z,5.53
2022-09-04T22:03:22.719Z,9.35
2022-09-04T22:10:21.686Z,7.60
2022-09-04T22:13:39.703Z,7.80
2022-09-04T22:15:05.562Z,7.20
2022-09-04T22:18:31.565Z,10.55
2022-09-04T22:21:47.139Z,7.50
2022-09-04T22:25:10.659Z,7.45
2022-09-04T22:28:57.706Z,12.75
2022-09-04T22:32:20.438Z,6.15
2022-09-04T22:36:13.590Z,8.57
2022-09-04T22:39:40.426Z,6.78
2022-09-04T22:42:51.775Z,8.40
2022-09-04T22:46:12.876Z,6.68
2022-09-04T22:49:47.395Z,6.88
2022-09-04T22:53:40.451Z,7.85
2022-09-04T22:56:57.263Z,6.43
2022-09-04T23:00:22.173Z,5.43
2022-09-04T23:04:03.938Z,5.03
2022-09-04T23:12:09.481Z,7.28
2022-09-04T23:13:47.940Z,7.68
2022-09-04T23:14:24.118Z,6.28
2022-09-04T23:17:57.474Z,6.45
2022-09-04T23:26:37.748Z,6.40
2022-09-04T23:26:43.387Z,9.93
2022-09-04T23:28:48.287Z,6.07
2022-09-04T23:32:18.099Z,9.40
2022-09-04T23:36:21.536Z,5.68
2022-09-04T23:39:50.640Z,4.72
2022-09-04T23:44:02.512Z,5.78
2022-09-04T23:47:48.459Z,7.20
2022-09-04T23:50:50.319Z,5.18
2022-09-04T23:54:36.752Z,6.88
2022-09-04T23:57:52.789Z,5.72
